Time;durP1;ratioP1;P1;durP2;ratioP2;P2;SDS_P1;SDS_P2;PMS_P1;PMS_P2;Temp;Humidity;BMP_temperature;BMP_pressure;BME280_temperature;BME280_humidity;BME280_pressure;Samples;Min_cycle;Max_cycle;Signal;HPM_P1;HPM_P2
2022/12/03 00:01:42;;;;;;;40.33;17.80;;;;;;;;;;5113623;28;20043;-64
2022/12/03 00:04:08;;;;;;;35.50;16.20;;;;;;;;;;5102706;28;20043;-64
2022/12/03 00:06:34;;;;;;;35.47;16.08;;;;;;;;;;5093090;28;20036;-64
2022/12/03 00:09:00;;;;;;;35.95;17.77;;;;;;;;;;5100091;28;20071;-64
2022/12/03 00:11:26;;;;;;;41.33;16.60;;;;;;;;;;5113155;28;20088;-64
2022/12/03 00:13:52;;;;;;;37.90;17.17;;;;;;;;;;5113478;28;20497;-64
2022/12/03 00:16:18;;;;;;;36.83;16.90;;;;;;;;;;5113163;28;20036;-64
2022/12/03 00:18:44;;;;;;;34.40;15.60;;;;;;;;;;5112681;28;20043;-64
2022/12/03 00:21:10;;;;;;;34.38;16.05;;;;;;;;;;5113117;28;20047;-64
2022/12/03 00:23:37;;;;;;;37.80;16.48;;;;;;;;;;5113278;28;20122;-64
2022/12/03 00:26:03;;;;;;;39.70;16.90;;;;;;;;;;5112941;28;20653;-64
2022/12/03 00:28:29;;;;;;;38.85;17.27;;;;;;;;;;5112760;28;20027;-64
2022/12/03 00:30:55;;;;;;;37.40;17.50;;;;;;;;;;5113070;28;20055;-64
2022/12/03 00:33:21;;;;;;;35.70;16.70;;;;;;;;;;5112702;28;20036;-64
2022/12/03 00:35:47;;;;;;;34.63;16.80;;;;;;;;;;5112994;28;20417;-64
2022/12/03 00:38:13;;;;;;;37.63;16.58;;;;;;;;;;5112997;28;20044;-64
2022/12/03 00:40:41;;;;;;;37.55;16.83;;;;;;;;;;5112520;28;20043;-64
2022/12/03 00:43:07;;;;;;;41.00;17.13;;;;;;;;;;5112801;28;20111;-64
2022/12/03 00:45:33;;;;;;;36.92;16.73;;;;;;;;;;5112856;28;20039;-64
2022/12/03 00:47:59;;;;;;;38.63;16.08;;;;;;;;;;5112235;28;20177;-64
2022/12/03 00:50:25;;;;;;;40.28;17.50;;;;;;;;;;5112418;28;20036;-64
2022/12/03 00:52:51;;;;;;;39.20;17.65;;;;;;;;;;5112709;28;20042;-64
2022/12/03 00:55:17;;;;;;;37.33;16.20;;;;;;;;;;5112279;28;20032;-64
2022/12/03 00:57:43;;;;;;;39.55;17.05;;;;;;;;;;5112477;28;20044;-64
2022/12/03 01:00:10;;;;;;;36.10;17.52;;;;;;;;;;5112541;28;20053;-64
2022/12/03 01:02:36;;;;;;;38.38;17.60;;;;;;;;;;5110458;28;20050;-64
2022/12/03 01:05:03;;;;;;;40.03;16.83;;;;;;;;;;5094005;28;20123;-64
2022/12/03 01:07:29;;;;;;;34.63;15.93;;;;;;;;;;5091793;28;20040;-64
2022/12/03 01:09:55;;;;;;;39.88;17.33;;;;;;;;;;5106619;28;20046;-64
2022/12/03 01:12:21;;;;;;;34.22;16.08;;;;;;;;;;5112289;28;20486;-64
2022/12/03 01:14:47;;;;;;;36.67;17.13;;;;;;;;;;5112380;28;20047;-64
2022/12/03 01:17:13;;;;;;;33.70;16.00;;;;;;;;;;5111371;28;20101;-64
2022/12/03 01:19:43;;;;;;;34.38;15.27;;;;;;;;;;5111398;28;20039;-64
2022/12/03 01:22:09;;;;;;;32.85;16.40;;;;;;;;;;5112213;28;20036;-64
2022/12/03 01:24:35;;;;;;;33.75;16.23;;;;;;;;;;5111850;28;20050;-64
2022/12/03 01:27:01;;;;;;;33.38;16.25;;;;;;;;;;5112199;28;20064;-64
2022/12/03 01:29:27;;;;;;;36.38;16.02;;;;;;;;;;5112066;28;20039;-64
2022/12/03 01:34:38;;;;;;;33.20;15.45;;;;;;;;;;5112073;28;20490;-64
2022/12/03 01:37:04;;;;;;;29.58;14.05;;;;;;;;;;5112082;28;20466;-64
2022/12/03 01:39:30;;;;;;;33.17;15.52;;;;;;;;;;5111749;28;20467;-64
2022/12/03 01:41:57;;;;;;;33.60;16.25;;;;;;;;;;5112122;28;20042;-64
2022/12/03 01:44:25;;;;;;;32.83;15.20;;;;;;;;;;5111685;28;20044;-64
2022/12/03 01:46:52;;;;;;;31.52;15.65;;;;;;;;;;5111534;28;20055;-64
2022/12/03 01:49:20;;;;;;;32.60;15.90;;;;;;;;;;5111384;28;20408;-64
2022/12/03 01:51:46;;;;;;;31.60;16.27;;;;;;;;;;5111964;28;20047;-64
2022/12/03 01:54:16;;;;;;;32.30;16.33;;;;;;;;;;5111564;28;20084;-64
2022/12/03 01:56:42;;;;;;;33.15;16.30;;;;;;;;;;5111970;28;20071;-64
2022/12/03 01:59:09;;;;;;;32.30;15.95;;;;;;;;;;5111814;28;20039;-64
2022/12/03 02:01:35;;;;;;;33.17;15.57;;;;;;;;;;5111227;28;20046;-64
2022/12/03 02:04:01;;;;;;;31.52;15.60;;;;;;;;;;5101189;28;20089;-64
2022/12/03 02:06:28;;;;;;;32.85;16.40;;;;;;;;;;5091241;28;20040;-64
2022/12/03 02:08:58;;;;;;;35.55;15.15;;;;;;;;;;5097423;28;20043;-64
2022/12/03 02:11:32;;;;;;;32.50;15.25;;;;;;;;;;5111491;28;20075;-64
2022/12/03 02:14:01;;;;;;;31.00;16.73;;;;;;;;;;5111599;28;20042;-64
2022/12/03 02:16:27;;;;;;;32.15;15.38;;;;;;;;;;5111121;28;20128;-64
2022/12/03 02:18:53;;;;;;;30.85;15.07;;;;;;;;;;5111260;28;20135;-64
2022/12/03 02:21:23;;;;;;;32.15;15.48;;;;;;;;;;5111577;28;20478;-64
2022/12/03 02:23:55;;;;;;;33.20;15.32;;;;;;;;;;5111231;28;20040;-64
2022/12/03 02:26:21;;;;;;;33.97;16.00;;;;;;;;;;5111592;28;20144;-64
2022/12/03 02:28:47;;;;;;;32.53;15.02;;;;;;;;;;5111452;28;20069;-64
2022/12/03 02:31:13;;;;;;;33.63;16.58;;;;;;;;;;5112993;28;20039;-64
2022/12/03 02:33:39;;;;;;;32.85;16.02;;;;;;;;;;5115511;28;20428;-64
2022/12/03 02:36:06;;;;;;;31.02;16.10;;;;;;;;;;5114229;28;20089;-64
2022/12/03 02:38:32;;;;;;;35.05;16.02;;;;;;;;;;5114825;28;20367;-64
2022/12/03 02:41:00;;;;;;;30.80;16.67;;;;;;;;;;5115404;28;20057;-64
2022/12/03 02:43:26;;;;;;;31.33;15.27;;;;;;;;;;5115379;28;20075;-64
2022/12/03 02:45:54;;;;;;;31.02;14.95;;;;;;;;;;5114997;28;20141;-64
2022/12/03 02:48:28;;;;;;;28.55;15.18;;;;;;;;;;5115141;28;20432;-64
2022/12/03 02:50:55;;;;;;;28.92;14.38;;;;;;;;;;5115043;28;20043;-64
2022/12/03 02:53:25;;;;;;;33.13;15.88;;;;;;;;;;5114492;28;20071;-64
2022/12/03 02:55:51;;;;;;;33.20;16.23;;;;;;;;;;5114914;28;20036;-64
2022/12/03 02:58:17;;;;;;;29.05;15.52;;;;;;;;;;5114921;28;20478;-64
2022/12/03 03:00:44;;;;;;;30.02;14.85;;;;;;;;;;5114352;28;20099;-64
2022/12/03 03:03:10;;;;;;;31.88;15.73;;;;;;;;;;5112526;28;20161;-64
2022/12/03 03:05:38;;;;;;;28.40;14.55;;;;;;;;;;5094319;28;20052;-64
2022/12/03 03:08:04;;;;;;;33.28;16.73;;;;;;;;;;5094147;28;20044;-64
2022/12/03 03:10:32;;;;;;;27.60;14.68;;;;;;;;;;5114351;28;20036;-64
2022/12/03 03:12:58;;;;;;;30.35;15.93;;;;;;;;;;5114539;28;20046;-64
2022/12/03 03:15:24;;;;;;;31.23;15.50;;;;;;;;;;5114137;28;20045;-64
2022/12/03 03:17:50;;;;;;;28.33;15.23;;;;;;;;;;5114283;28;20094;-64
2022/12/03 03:20:16;;;;;;;34.00;17.42;;;;;;;;;;5114601;28;20521;-64
2022/12/03 03:22:43;;;;;;;30.08;15.60;;;;;;;;;;5114107;28;20040;-64
2022/12/03 03:25:12;;;;;;;30.30;14.75;;;;;;;;;;5114411;28;20374;-64
2022/12/03 03:27:39;;;;;;;28.67;15.15;;;;;;;;;;5114423;28;20397;-64
2022/12/03 03:30:05;;;;;;;30.10;15.95;;;;;;;;;;5113783;28;20394;-64
2022/12/03 03:32:32;;;;;;;30.58;16.20;;;;;;;;;;5113990;28;20036;-64
2022/12/03 03:34:58;;;;;;;30.83;15.35;;;;;;;;;;5113136;28;20035;-64
2022/12/03 03:37:24;;;;;;;30.40;15.18;;;;;;;;;;5113769;28;20039;-64
2022/12/03 03:39:50;;;;;;;29.67;15.07;;;;;;;;;;5113996;28;20043;-64
2022/12/03 03:42:17;;;;;;;35.28;17.13;;;;;;;;;;5113201;28;20047;-64
2022/12/03 03:44:43;;;;;;;30.02;15.90;;;;;;;;;;5113463;28;20043;-64
2022/12/03 03:47:09;;;;;;;29.65;15.48;;;;;;;;;;5114015;28;20040;-64
2022/12/03 03:49:35;;;;;;;31.77;16.58;;;;;;;;;;5113464;28;20055;-64
2022/12/03 03:52:02;;;;;;;30.88;15.55;;;;;;;;;;5113840;28;20056;-64
2022/12/03 03:54:28;;;;;;;30.33;15.98;;;;;;;;;;5113717;28;20040;-64
2022/12/03 03:56:54;;;;;;;31.02;16.40;;;;;;;;;;5113706;28;20046;-64
2022/12/03 03:59:20;;;;;;;33.42;15.65;;;;;;;;;;5113876;28;20044;-64
2022/12/03 04:01:46;;;;;;;32.97;16.02;;;;;;;;;;5113404;28;20046;-64
2022/12/03 04:04:19;;;;;;;30.50;15.23;;;;;;;;;;5102496;28;20039;-64
2022/12/03 04:06:46;;;;;;;33.25;17.00;;;;;;;;;;5091758;28;20044;-64
2022/12/03 04:09:12;;;;;;;32.08;16.60;;;;;;;;;;5101689;28;20482;-64
2022/12/03 04:14:22;;;;;;;30.63;15.60;;;;;;;;;;5113189;28;20071;-64
2022/12/03 04:16:48;;;;;;;29.77;15.27;;;;;;;;;;5113247;28;20501;-64
2022/12/03 04:19:14;;;;;;;31.52;16.08;;;;;;;;;;5113507;28;20051;-64
2022/12/03 04:24:26;;;;;;;30.90;15.30;;;;;;;;;;5113458;28;20043;-64
2022/12/03 04:29:37;;;;;;;35.20;15.70;;;;;;;;;;5112628;28;20047;-64
2022/12/03 04:37:33;;;;;;;31.52;15.13;;;;;;;;;;5112827;28;20040;-64
2022/12/03 04:40:00;;;;;;;29.02;14.35;;;;;;;;;;5113114;28;20377;-64
2022/12/03 04:42:26;;;;;;;29.25;15.02;;;;;;;;;;5112959;28;20088;-64
2022/12/03 04:44:52;;;;;;;29.05;15.68;;;;;;;;;;5112108;28;20043;-64
2022/12/03 04:47:19;;;;;;;29.77;14.68;;;;;;;;;;5112638;28;20091;-64
2022/12/03 04:49:46;;;;;;;30.13;14.77;;;;;;;;;;5112850;28;20111;-64
2022/12/03 04:52:13;;;;;;;30.38;14.88;;;;;;;;;;5112367;28;20044;-64
2022/12/03 04:54:40;;;;;;;29.52;14.50;;;;;;;;;;5112777;28;20118;-64
2022/12/03 04:57:06;;;;;;;30.42;15.40;;;;;;;;;;5112758;28;20426;-64
2022/12/03 04:59:33;;;;;;;28.77;14.48;;;;;;;;;;5112130;28;20043;-64
2022/12/03 05:01:59;;;;;;;27.55;14.65;;;;;;;;;;5112497;28;20045;-64
2022/12/03 05:04:25;;;;;;;27.55;14.55;;;;;;;;;;5099699;28;20055;-64
2022/12/03 05:06:51;;;;;;;31.88;15.63;;;;;;;;;;5091408;28;20044;-64
2022/12/03 05:09:17;;;;;;;26.05;13.85;;;;;;;;;;5101348;28;20047;-64
2022/12/03 05:11:43;;;;;;;28.38;14.50;;;;;;;;;;5112432;28;20039;-64
2022/12/03 05:14:09;;;;;;;25.63;14.13;;;;;;;;;;5112140;28;20043;-64
2022/12/03 05:16:36;;;;;;;27.38;14.40;;;;;;;;;;5112332;28;20042;-64
2022/12/03 05:19:02;;;;;;;28.70;14.25;;;;;;;;;;5112115;28;20043;-64
2022/12/03 05:21:28;;;;;;;30.73;15.63;;;;;;;;;;5111755;28;20117;-64
2022/12/03 05:23:54;;;;;;;30.35;14.63;;;;;;;;;;5112199;28;20058;-64
2022/12/03 05:26:21;;;;;;;27.20;14.30;;;;;;;;;;5112030;28;20049;-64
2022/12/03 05:28:47;;;;;;;28.20;14.27;;;;;;;;;;5111663;28;20096;-64
2022/12/03 05:31:14;;;;;;;30.98;14.30;;;;;;;;;;5112030;28;20416;-64
2022/12/03 05:33:40;;;;;;;28.00;13.68;;;;;;;;;;5112427;28;20031;-64
2022/12/03 05:36:06;;;;;;;30.42;14.05;;;;;;;;;;5111807;28;20040;-64
2022/12/03 05:38:32;;;;;;;26.63;14.13;;;;;;;;;;5112166;28;20706;-64
2022/12/03 05:40:58;;;;;;;31.40;15.00;;;;;;;;;;5112023;28;20059;-64
2022/12/03 05:43:24;;;;;;;28.80;14.98;;;;;;;;;;5111640;28;20697;-64
2022/12/03 05:45:50;;;;;;;28.27;14.70;;;;;;;;;;5111899;28;20043;-64
2022/12/03 05:48:16;;;;;;;31.38;15.52;;;;;;;;;;5112069;28;20039;-64
2022/12/03 05:50:43;;;;;;;31.25;14.10;;;;;;;;;;5111561;28;20035;-64
2022/12/03 05:53:10;;;;;;;26.50;14.05;;;;;;;;;;5112072;28;20046;-64
2022/12/03 05:55:36;;;;;;;26.45;15.10;;;;;;;;;;5111905;28;20036;-64
2022/12/03 05:58:02;;;;;;;27.55;14.00;;;;;;;;;;5111602;28;20043;-64
2022/12/03 06:00:30;;;;;;;29.33;14.43;;;;;;;;;;5111795;28;20047;-64
2022/12/03 06:02:56;;;;;;;30.05;15.00;;;;;;;;;;5110969;28;20050;-64
2022/12/03 06:05:23;;;;;;;32.33;15.65;;;;;;;;;;5091696;28;20047;-64
2022/12/03 06:07:49;;;;;;;27.17;15.00;;;;;;;;;;5095579;28;20044;-64
2022/12/03 06:10:18;;;;;;;26.75;14.05;;;;;;;;;;5113154;28;20044;-64
2022/12/03 06:12:44;;;;;;;29.90;14.45;;;;;;;;;;5115086;28;20036;-64
2022/12/03 06:15:13;;;;;;;31.20;15.38;;;;;;;;;;5115736;28;20572;-64
2022/12/03 06:17:39;;;;;;;28.55;14.75;;;;;;;;;;5115575;28;20062;-64
2022/12/03 06:20:05;;;;;;;29.85;14.63;;;;;;;;;;5115640;28;20039;-64
2022/12/03 06:22:32;;;;;;;28.02;14.88;;;;;;;;;;5115561;28;20051;-64
2022/12/03 06:24:58;;;;;;;29.95;14.73;;;;;;;;;;5114202;28;20630;-64
2022/12/03 06:27:24;;;;;;;30.02;14.73;;;;;;;;;;5115393;28;20083;-64
2022/12/03 06:29:50;;;;;;;28.23;14.55;;;;;;;;;;5115192;28;20031;-64
2022/12/03 06:32:16;;;;;;;30.23;14.38;;;;;;;;;;5113829;28;20427;-64
2022/12/03 06:34:42;;;;;;;30.15;15.15;;;;;;;;;;5114140;28;20402;-64
2022/12/03 06:37:08;;;;;;;29.80;14.48;;;;;;;;;;5115094;28;20032;-64
2022/12/03 06:39:34;;;;;;;29.80;15.25;;;;;;;;;;5115428;28;20050;-64
2022/12/03 06:42:00;;;;;;;29.02;14.13;;;;;;;;;;5115041;28;20122;-64
2022/12/03 06:44:26;;;;;;;26.08;13.88;;;;;;;;;;5114545;28;20165;-64
2022/12/03 06:46:52;;;;;;;31.80;15.38;;;;;;;;;;5115384;28;20043;-64
2022/12/03 06:49:18;;;;;;;28.15;13.85;;;;;;;;;;5115178;28;20122;-64
2022/12/03 06:51:44;;;;;;;29.77;15.38;;;;;;;;;;5114654;28;20169;-64
2022/12/03 06:54:10;;;;;;;28.17;14.23;;;;;;;;;;5115369;28;20031;-64
2022/12/03 06:56:36;;;;;;;29.13;14.15;;;;;;;;;;5115118;28;20039;-64
2022/12/03 06:59:02;;;;;;;30.67;15.00;;;;;;;;;;5114786;28;20120;-64
2022/12/03 07:01:28;;;;;;;29.25;14.30;;;;;;;;;;5114885;28;20031;-64
2022/12/03 07:03:54;;;;;;;27.70;14.48;;;;;;;;;;5106359;28;20039;-64
2022/12/03 07:06:20;;;;;;;27.33;14.13;;;;;;;;;;5094086;28;20122;-64
2022/12/03 07:08:46;;;;;;;30.60;15.43;;;;;;;;;;5099570;28;20082;-64
2022/12/03 07:11:30;;;;;;;30.90;15.57;;;;;;;;;;5114763;28;20455;-64
2022/12/03 07:13:57;;;;;;;31.70;14.95;;;;;;;;;;5114311;28;20036;-64
2022/12/03 07:16:23;;;;;;;28.92;13.57;;;;;;;;;;5114085;28;20059;-64
2022/12/03 07:18:49;;;;;;;30.95;14.25;;;;;;;;;;5113741;28;20075;-64
2022/12/03 07:21:15;;;;;;;31.73;14.57;;;;;;;;;;5114090;28;20035;-64
2022/12/03 07:23:41;;;;;;;29.95;14.73;;;;;;;;;;5114335;28;20374;-64
2022/12/03 07:26:07;;;;;;;29.42;14.55;;;;;;;;;;5114436;28;20113;-64
2022/12/03 07:28:33;;;;;;;32.28;15.20;;;;;;;;;;5113657;28;20047;-64
2022/12/03 07:30:59;;;;;;;33.35;15.25;;;;;;;;;;5114055;28;20079;-64
2022/12/03 07:33:25;;;;;;;31.10;14.90;;;;;;;;;;5113984;28;20082;-64
2022/12/03 07:35:51;;;;;;;32.25;14.18;;;;;;;;;;5113905;28;20558;-64
2022/12/03 07:38:18;;;;;;;30.52;15.55;;;;;;;;;;5114216;28;20039;-64
2022/12/03 07:40:44;;;;;;;34.70;16.33;;;;;;;;;;5113746;28;20057;-64
2022/12/03 07:43:10;;;;;;;36.05;16.83;;;;;;;;;;5113915;28;20051;-64
2022/12/03 07:45:36;;;;;;;33.38;16.45;;;;;;;;;;5114111;28;20382;-64
2022/12/03 07:48:02;;;;;;;33.33;17.13;;;;;;;;;;5114122;28;20051;-64
2022/12/03 07:50:28;;;;;;;29.75;14.82;;;;;;;;;;5095012;28;20052;-64
2022/12/03 07:52:54;;;;;;;34.53;16.90;;;;;;;;;;5114067;28;20042;-64
2022/12/03 07:55:20;;;;;;;36.20;17.08;;;;;;;;;;5114083;28;20503;-64
2022/12/03 07:57:46;;;;;;;33.25;16.55;;;;;;;;;;5113261;28;20039;-64
2022/12/03 08:00:13;;;;;;;33.78;16.65;;;;;;;;;;5113852;28;20122;-64
2022/12/03 08:02:39;;;;;;;35.85;17.08;;;;;;;;;;5113713;28;20040;-64
2022/12/03 08:05:05;;;;;;;35.83;16.90;;;;;;;;;;5094822;28;20038;-64
2022/12/03 08:07:31;;;;;;;31.58;15.90;;;;;;;;;;5093397;28;20177;-64
2022/12/03 08:09:57;;;;;;;33.53;16.13;;;;;;;;;;5108405;28;20043;-64
2022/12/03 08:12:38;;;;;;;34.17;16.55;;;;;;;;;;5112879;28;20144;-64
2022/12/03 08:15:15;;;;;;;36.70;16.67;;;;;;;;;;5113646;28;20040;-64
2022/12/03 08:17:41;;;;;;;31.55;15.13;;;;;;;;;;5113053;28;20055;-64
2022/12/03 08:20:12;;;;;;;33.83;15.55;;;;;;;;;;5113070;28;20077;-64
2022/12/03 08:22:38;;;;;;;38.47;18.40;;;;;;;;;;5113363;28;20089;-64
2022/12/03 08:25:23;;;;;;;40.38;18.27;;;;;;;;;;5111979;28;20075;-64
2022/12/03 08:27:50;;;;;;;38.15;17.17;;;;;;;;;;5112778;28;20114;-64
2022/12/03 08:30:16;;;;;;;38.10;17.35;;;;;;;;;;5112749;28;20046;-64
2022/12/03 08:32:43;;;;;;;37.58;18.77;;;;;;;;;;5113189;28;20798;-64
2022/12/03 08:35:23;;;;;;;44.03;20.42;;;;;;;;;;5112881;28;20040;-64
2022/12/03 08:37:50;;;;;;;45.17;22.02;;;;;;;;;;5112738;28;20032;-64
2022/12/03 08:40:19;;;;;;;47.38;22.38;;;;;;;;;;5113136;28;20537;-64
2022/12/03 08:42:45;;;;;;;50.20;22.80;;;;;;;;;;5112472;28;20467;-64
2022/12/03 08:45:38;;;;;;;51.83;22.33;;;;;;;;;;5113044;28;20043;-64
2022/12/03 08:48:24;;;;;;;45.50;21.48;;;;;;;;;;5112572;28;20099;-64
2022/12/03 08:50:51;;;;;;;43.85;21.52;;;;;;;;;;5094196;28;20056;-64
2022/12/03 08:53:17;;;;;;;49.42;22.98;;;;;;;;;;5112835;28;20079;-64
2022/12/03 08:55:47;;;;;;;47.13;22.33;;;;;;;;;;5110837;28;20043;-64
2022/12/03 08:58:31;;;;;;;48.45;21.88;;;;;;;;;;5112635;28;20047;-64
2022/12/03 09:00:59;;;;;;;46.42;21.52;;;;;;;;;;5112498;28;20044;-64
2022/12/03 09:03:29;;;;;;;50.38;23.25;;;;;;;;;;5107494;28;20032;-64
2022/12/03 09:05:55;;;;;;;50.47;22.48;;;;;;;;;;5092022;28;20111;-64
2022/12/03 09:08:21;;;;;;;50.47;22.65;;;;;;;;;;5093831;28;20070;-64
2022/12/03 09:10:47;;;;;;;50.47;22.77;;;;;;;;;;5111645;28;20043;-64
2022/12/03 09:13:13;;;;;;;46.28;21.98;;;;;;;;;;5112463;28;20032;-64
2022/12/03 09:15:39;;;;;;;46.63;21.90;;;;;;;;;;5112528;28;20680;-64
2022/12/03 09:18:05;;;;;;;51.25;22.83;;;;;;;;;;5111579;28;20051;-64
2022/12/03 09:20:31;;;;;;;50.35;23.15;;;;;;;;;;5112208;28;20035;-64
2022/12/03 09:22:57;;;;;;;48.40;22.40;;;;;;;;;;5111287;28;20039;-64
2022/12/03 09:25:23;;;;;;;51.92;23.23;;;;;;;;;;5111236;28;20750;-64
2022/12/03 09:27:49;;;;;;;48.67;22.40;;;;;;;;;;5111625;28;20071;-64
2022/12/03 09:30:15;;;;;;;47.35;22.75;;;;;;;;;;5111317;28;20082;-64
2022/12/03 09:32:41;;;;;;;47.08;21.83;;;;;;;;;;5110896;28;20032;-64
2022/12/03 09:35:08;;;;;;;47.30;22.80;;;;;;;;;;5111520;28;20039;-64
2022/12/03 09:37:34;;;;;;;50.72;24.13;;;;;;;;;;5111414;28;20482;-64
2022/12/03 09:40:00;;;;;;;53.63;24.38;;;;;;;;;;5110276;28;20036;-64
2022/12/03 09:42:26;;;;;;;51.33;22.65;;;;;;;;;;5111614;28;20670;-64
2022/12/03 09:44:52;;;;;;;53.33;24.35;;;;;;;;;;5111988;28;20451;-64
2022/12/03 09:47:18;;;;;;;52.20;21.95;;;;;;;;;;5111838;28;20046;-64
2022/12/03 09:49:44;;;;;;;53.75;23.92;;;;;;;;;;5111417;28;20036;-64
2022/12/03 09:52:13;;;;;;;47.67;23.00;;;;;;;;;;5111872;28;20452;-64
2022/12/03 09:54:39;;;;;;;51.80;23.08;;;;;;;;;;5111873;28;20036;-64
2022/12/03 09:57:06;;;;;;;51.83;23.38;;;;;;;;;;5111742;28;20640;-64
2022/12/03 09:59:34;;;;;;;54.28;24.02;;;;;;;;;;5111636;28;20039;-64
2022/12/03 10:02:00;;;;;;;51.13;22.40;;;;;;;;;;5111289;28;20100;-64
2022/12/03 10:04:27;;;;;;;49.22;22.10;;;;;;;;;;5098447;28;20032;-64
2022/12/03 10:06:53;;;;;;;46.13;21.95;;;;;;;;;;5091478;28;20047;-64
2022/12/03 10:09:26;;;;;;;50.40;23.25;;;;;;;;;;5101198;28;20039;-64
2022/12/03 10:11:53;;;;;;;43.42;20.42;;;;;;;;;;5111191;28;20065;-64
2022/12/03 10:14:20;;;;;;;49.33;22.52;;;;;;;;;;5111717;28;20100;-64
2022/12/03 10:16:46;;;;;;;50.05;22.63;;;;;;;;;;5111461;28;20077;-64
2022/12/03 10:19:17;;;;;;;45.70;22.95;;;;;;;;;;5109987;28;20083;-64
2022/12/03 10:21:43;;;;;;;54.95;22.15;;;;;;;;;;5111318;28;20074;-64
2022/12/03 10:24:18;;;;;;;49.72;24.35;;;;;;;;;;5111290;28;20063;-64
2022/12/03 10:26:45;;;;;;;54.28;23.38;;;;;;;;;;5111565;28;20415;-64
2022/12/03 10:29:12;;;;;;;51.15;23.33;;;;;;;;;;5111274;28;20027;-64
2022/12/03 10:31:38;;;;;;;49.28;22.25;;;;;;;;;;5111532;28;20122;-64
2022/12/03 10:34:04;;;;;;;45.25;22.42;;;;;;;;;;5111306;28;20134;-64
2022/12/03 10:36:30;;;;;;;49.63;22.83;;;;;;;;;;5111310;28;20146;-64
2022/12/03 10:39:13;;;;;;;46.45;22.92;;;;;;;;;;5111373;28;20065;-64
2022/12/03 10:41:39;;;;;;;;;;;;;;;;;;5111875;28;20043;-64
2022/12/03 10:44:14;;;;;;;51.53;21.38;;;;;;;;;;5111451;28;19915;-64
2022/12/03 10:46:40;;;;;;;46.67;21.50;;;;;;;;;;5111056;28;20036;-64
2022/12/03 10:49:16;;;;;;;47.53;21.60;;;;;;;;;;5111159;28;20032;-64
2022/12/03 10:51:43;;;;;;;47.83;21.92;;;;;;;;;;5112048;28;20044;-64
2022/12/03 10:54:17;;;;;;;50.75;22.83;;;;;;;;;;5114729;28;20402;-64
2022/12/03 10:56:43;;;;;;;48.95;22.73;;;;;;;;;;5115067;28;20053;-64
2022/12/03 10:59:20;;;;;;;47.05;21.77;;;;;;;;;;5114694;28;20051;-64
2022/12/03 11:01:46;;;;;;;49.67;22.70;;;;;;;;;;5114058;28;20071;-64
2022/12/03 11:04:31;;;;;;;47.55;22.90;;;;;;;;;;5103854;28;20036;-64
2022/12/03 11:06:57;;;;;;;49.35;23.85;;;;;;;;;;5094389;28;20047;-64
2022/12/03 11:09:26;;;;;;;52.40;23.85;;;;;;;;;;5104124;28;20075;-64
2022/12/03 11:11:52;;;;;;;50.10;23.38;;;;;;;;;;5114760;28;20082;-64
2022/12/03 11:14:37;;;;;;;49.72;22.58;;;;;;;;;;5114773;28;20515;-64
2022/12/03 11:17:03;;;;;;;47.63;22.65;;;;;;;;;;5114115;28;20052;-64
2022/12/03 11:19:35;;;;;;;48.72;23.58;;;;;;;;;;5114748;28;20044;-64
2022/12/03 11:22:04;;;;;;;47.95;22.25;;;;;;;;;;5114661;28;20032;-64
2022/12/03 11:24:34;;;;;;;47.00;22.70;;;;;;;;;;5114141;28;20046;-64
2022/12/03 11:27:00;;;;;;;48.28;23.15;;;;;;;;;;5114525;28;20035;-64
2022/12/03 11:29:49;;;;;;;51.15;23.58;;;;;;;;;;5114368;28;20638;-64
2022/12/03 11:32:34;;;;;;;49.65;21.77;;;;;;;;;;5102885;28;20360;-64
2022/12/03 11:35:00;;;;;;;45.58;21.88;;;;;;;;;;5114353;28;20088;-64
2022/12/03 11:37:27;;;;;;;48.28;21.65;;;;;;;;;;5114198;28;20031;-64
2022/12/03 11:40:11;;;;;;;48.08;22.60;;;;;;;;;;5113810;28;20055;-64
2022/12/03 11:42:38;;;;;;;45.53;23.70;;;;;;;;;;5114213;28;20047;-64
2022/12/03 11:45:05;;;;;;;49.38;22.80;;;;;;;;;;5114168;28;20557;-64
2022/12/03 11:47:32;;;;;;;47.45;22.00;;;;;;;;;;5113751;28;20110;-64
2022/12/03 11:49:58;;;;;;;50.08;22.25;;;;;;;;;;5113933;28;20162;-64
2022/12/03 11:52:31;;;;;;;47.25;22.90;;;;;;;;;;5113900;28;20040;-64
2022/12/03 11:55:00;;;;;;;51.92;24.70;;;;;;;;;;5113690;28;20093;-64
2022/12/03 11:57:32;;;;;;;48.83;24.92;;;;;;;;;;5114091;28;20443;-64
2022/12/03 11:59:59;;;;;;;50.17;24.35;;;;;;;;;;5113967;28;20676;-64
2022/12/03 12:02:25;;;;;;;47.08;23.25;;;;;;;;;;5113286;28;20063;-64
2022/12/03 12:04:51;;;;;;;49.30;24.27;;;;;;;;;;5096178;28;20039;-64
2022/12/03 12:07:34;;;;;;;51.25;24.95;;;;;;;;;;5093192;28;20044;-64
2022/12/03 12:10:00;;;;;;;;;;;;;;;;;;5108776;28;20110;-64
2022/12/03 12:12:30;;;;;;;52.95;24.42;;;;;;;;;;5113515;28;20002;-64
2022/12/03 12:14:57;;;;;;;51.80;24.65;;;;;;;;;;5113556;28;20424;-64
2022/12/03 12:17:33;;;;;;;50.10;24.38;;;;;;;;;;5112877;28;20079;-64
2022/12/03 12:20:18;;;;;;;50.20;24.13;;;;;;;;;;5113576;28;20050;-64
2022/12/03 12:22:44;;;;;;;50.55;24.75;;;;;;;;;;5112927;28;20066;-64
2022/12/03 12:25:29;;;;;;;47.50;23.35;;;;;;;;;;5113059;28;20727;-64
2022/12/03 12:27:55;;;;;;;49.05;24.30;;;;;;;;;;5113323;28;20092;-64
2022/12/03 12:30:22;;;;;;;44.05;23.02;;;;;;;;;;5112538;28;20043;-64
2022/12/03 12:32:52;;;;;;;48.88;23.00;;;;;;;;;;5113312;28;20504;-64
2022/12/03 12:35:25;;;;;;;47.88;23.42;;;;;;;;;;5113271;28;20472;-64
2022/12/03 12:37:54;;;;;;;48.47;23.67;;;;;;;;;;5112688;28;20111;-64
2022/12/03 12:40:25;;;;;;;48.72;23.23;;;;;;;;;;5113183;28;20462;-64
2022/12/03 12:42:59;;;;;;;45.17;23.02;;;;;;;;;;5113427;28;20458;-64
2022/12/03 12:45:27;;;;;;;52.58;24.17;;;;;;;;;;5112585;28;20047;-64
2022/12/03 12:47:59;;;;;;;52.65;24.83;;;;;;;;;;5112888;28;20079;-64
2022/12/03 12:50:25;;;;;;;51.20;24.05;;;;;;;;;;5111450;28;20042;-64
2022/12/03 12:52:57;;;;;;;48.40;23.30;;;;;;;;;;5112490;28;20031;-64
2022/12/03 12:55:23;;;;;;;;;;;;;;;;;;5113041;28;20093;-64
2022/12/03 12:57:50;;;;;;;48.38;23.42;;;;;;;;;;5112918;28;19915;-64
2022/12/03 13:00:18;;;;;;;51.50;25.77;;;;;;;;;;5111918;28;20039;-64
2022/12/03 13:02:47;;;;;;;51.53;25.30;;;;;;;;;;5112538;28;20052;-64
2022/12/03 13:05:13;;;;;;;51.13;23.92;;;;;;;;;;5093012;28;20051;-64
2022/12/03 13:07:39;;;;;;;50.33;23.83;;;;;;;;;;5091835;28;20048;-64
2022/12/03 13:10:24;;;;;;;53.15;23.83;;;;;;;;;;5108337;28;20042;-64
2022/12/03 13:12:50;;;;;;;50.03;24.27;;;;;;;;;;5112563;28;20040;-64
2022/12/03 13:15:36;;;;;;;50.80;23.17;;;;;;;;;;5111241;28;20071;-64
2022/12/03 13:18:10;;;;;;;51.00;24.40;;;;;;;;;;5112086;28;20052;-64
2022/12/03 13:20:36;;;;;;;49.20;23.70;;;;;;;;;;5112281;28;20048;-64
2022/12/03 13:23:05;;;;;;;47.25;24.23;;;;;;;;;;5111848;28;20046;-64
2022/12/03 13:25:37;;;;;;;50.75;24.25;;;;;;;;;;5112195;28;20036;-64
2022/12/03 13:28:03;;;;;;;48.95;24.10;;;;;;;;;;5112029;28;20051;-64
2022/12/03 13:30:29;;;;;;;43.90;21.58;;;;;;;;;;5111622;28;20668;-64
2022/12/03 13:32:57;;;;;;;51.65;23.67;;;;;;;;;;5112276;28;20035;-64
2022/12/03 13:35:30;;;;;;;46.78;23.17;;;;;;;;;;5112242;28;20081;-64
2022/12/03 13:37:57;;;;;;;46.83;22.80;;;;;;;;;;5111573;28;20043;-64
2022/12/03 13:40:25;;;;;;;43.92;21.88;;;;;;;;;;5111993;28;20047;-64
2022/12/03 13:42:52;;;;;;;47.75;24.08;;;;;;;;;;5112124;28;20361;-64
2022/12/03 13:45:17;;;;;;;51.67;24.20;;;;;;;;;;5111718;28;20043;-64
2022/12/03 13:47:45;;;;;;;43.30;23.17;;;;;;;;;;5112025;28;20530;-64
2022/12/03 13:50:29;;;;;;;47.80;23.98;;;;;;;;;;5111750;28;20378;-64
2022/12/03 13:52:55;;;;;;;45.40;23.30;;;;;;;;;;5111782;28;20123;-64
2022/12/03 13:55:24;;;;;;;48.60;24.50;;;;;;;;;;5111962;28;20449;-64
2022/12/03 13:57:50;;;;;;;46.10;21.70;;;;;;;;;;5111979;28;20115;-64
2022/12/03 14:00:16;;;;;;;44.22;22.40;;;;;;;;;;5111519;28;20675;-64
2022/12/03 14:02:42;;;;;;;46.42;22.45;;;;;;;;;;5111822;28;20036;-64
2022/12/03 14:05:09;;;;;;;50.72;23.05;;;;;;;;;;5092972;28;20355;-64
2022/12/03 14:07:35;;;;;;;50.33;22.73;;;;;;;;;;5091044;28;20107;-64
2022/12/03 14:10:01;;;;;;;50.17;23.15;;;;;;;;;;5106935;28;20044;-64
2022/12/03 14:12:32;;;;;;;44.10;21.10;;;;;;;;;;5111778;28;20249;-64
2022/12/03 14:14:58;;;;;;;46.58;22.58;;;;;;;;;;5111176;28;20048;-64
2022/12/03 14:17:24;;;;;;;47.65;22.13;;;;;;;;;;5111452;28;20506;-64
2022/12/03 14:19:50;;;;;;;48.65;23.00;;;;;;;;;;5111755;28;20068;-64
2022/12/03 14:22:18;;;;;;;41.00;20.95;;;;;;;;;;5111206;28;20473;-64
2022/12/03 14:24:44;;;;;;;44.78;21.55;;;;;;;;;;5111611;28;20039;-64
2022/12/03 14:27:10;;;;;;;43.38;21.42;;;;;;;;;;5113379;28;20398;-64
2022/12/03 14:29:36;;;;;;;45.97;20.90;;;;;;;;;;5115085;28;20039;-64
2022/12/03 14:32:02;;;;;;;47.70;21.08;;;;;;;;;;5115512;28;20709;-64
2022/12/03 14:34:28;;;;;;;41.28;20.50;;;;;;;;;;5115695;28;20075;-64
2022/12/03 14:36:54;;;;;;;43.90;21.08;;;;;;;;;;5114868;28;20035;-64
2022/12/03 14:39:20;;;;;;;45.15;19.98;;;;;;;;;;5115503;28;20044;-64